Columbia, SC (29201)

8:39 AM EDT on September 04, 2015 (GMT -0400)
Heathwood | | Change Station
CLOSE
Current Station
Personal Weather Station
Location: Columbia, SC
Elevation: 259 ft
Nearby Weather Stations

Elev 259 ft 34.01 °N, 80.99 °W | Updated 3 minutes ago

Clear
Clear
75.4 °F
Feels Like 74 °F
N
0.0
Wind Variable Wind from North

Today
High -- | Low -- °F
--% Chance of Precip.
Yesterday
High -- | Low -- °F
Precip. -- in
6:59 AM 7:46 PM
Waning Gibbous, 60% visible
Pressure 29.96 in
Visibility 10.0 miles
Clouds Clear
Heat Index 74 °F
Dew Point 74 °F
Humidity 95%
Rainfall 0.00 in
Snow Depth Not available.
UV 1 out of 12
Pollen 9.00 out of 12
Air Quality Not available.
Flu Activity Not available.
METAR KCUB 041153Z AUTO 00000KT 10SM CLR 24/22 A2997 RMK AO2 SLP146 T02390217 10244 20228 53010 TSNO
Pressure 29.96 in
Visibility 10.0 miles
Clouds Clear
Heat Index 74 °F
Dew Point 74 °F
Humidity 95%
Rainfall 0.00 in
Snow Depth Not available.
UV 1 out of 12
Pollen 9.00 out of 12
Air Quality Not available.
Flu Activity Not available.
METAR KCUB 041153Z AUTO 00000KT 10SM CLR 24/22 A2997 RMK AO2 SLP146 T02390217 10244 20228 53010 TSNO

10-Day Weather Forecast

×

Almanac

Astronomy

Sep. 04, 2015 Rise Set
Actual Time
Civil Twilight
Nautical Twilight
Astronomical Twilight
Moon
Length of Visible Light
Length of Day
Tomorrow will be .
, % of the Moon is Illuminated

Today's Extremes

State Highs State Lows

Community

WunderPhotos

Upload Photos

1,852,170 photos uploaded!

WunderBlogs® & News

Nearby

Air Quality

  Air Quality AQ Index Pollutant
Not available.

Snow Depth

Station Depth Elevation

Earthquake Activity

City Distance Mag. Time & Date
Minimum magnitude displayed is 2.5.

Coastal Water Temperatures

Place Temperature

Stations

Nearby Weather Stations

Station Location Temp. Windchill Dew Point Humidity Wind Precip. Elev Updated Type